Latest Weather Observations for Latrobe Valley

IDV60801

Issued at 6:02 am EDT Sunday 1 March 2015 (issued every 30 minutes, with the page automatically refreshed every 10 minutes)

About weather observations | Map of weather stations | Latest weather observations for VIC | Other Formats
Station Details ID: 085280 Name: LATROBE VALLEY AIRPORT Lat: -38.21 Lon: 146.47 Height: 55.7 m
Data from the previous 72 hours. | See also: Recent months at Latrobe Valley
Date/Time
EDT
Temp
°C
App
Temp
°C
Dew
Point
Rel
Hum
%
Delta-T
°C
Wind Press
QNH
hPa
Press
MSL
hPa
Rain
since 9 am
mm
Dir
 
Spd
km/h
Gust
km/h
Spd
kts
Gust
kts
01/06:00am 15.2 13.3 15.2 100 0.0 W 19 20 10 11 1007.3 1007.1 -
01/05:34am 15.5 13.5 15.5 100 0.0 W 20 28 11 15 1006.4 1006.2 7.4
01/05:30am 15.5 13.1 15.3 99 0.1 WSW 22 32 12 17 1006.3 1006.1 7.4
01/05:21am 15.6 12.4 15.4 99 0.1 WSW 26 33 14 18 1006.1 1005.9 7.4
01/05:08am 15.6 11.7 15.6 100 0.0 WSW 30 39 16 21 1005.6 1005.4 7.4
01/05:00am 15.6 12.9 15.6 100 0.0 WSW 24 32 13 17 1005.5 1005.3 7.4
01/04:30am 16.2 12.2 16.2 100 0.0 SW 32 41 17 22 1004.7 1004.5 6.8
01/04:00am 17.4 14.3 17.4 100 0.0 WSW 30 43 16 23 1004.0 1003.8 6.6
01/03:48am 17.8 16.0 17.8 100 0.0 SW 24 33 13 18 1003.8 1003.6 6.4
01/03:39am 18.0 16.6 18.0 100 0.0 SW 22 28 12 15 1003.7 1003.5 6.4
01/03:30am 18.1 17.3 18.1 100 0.0 W 19 26 10 14 1003.9 1003.7 6.4
01/03:24am 18.2 17.9 18.2 100 0.0 W 17 22 9 12 1003.8 1003.6 6.0
01/03:00am 18.1 18.9 18.1 100 0.0 W 11 17 6 9 1003.7 1003.5 5.6
01/02:30am 18.2 19.4 18.2 100 0.0 SSW 9 17 5 9 1003.9 1003.7 5.6
01/02:00am 18.1 19.2 18.1 100 0.0 S 9 13 5 7 1004.1 1003.9 5.4
01/01:30am 18.1 19.6 18.1 100 0.0 SSW 7 9 4 5 1004.2 1004.0 5.4
01/01:19am 17.9 19.3 17.9 100 0.0 W 7 11 4 6 1004.4 1004.2 5.4
01/01:00am 18.0 18.7 18.0 100 0.0 WNW 11 17 6 9 1004.5 1004.3 5.0
01/12:51am 18.1 18.5 18.1 100 0.0 WNW 13 17 7 9 1005.3 1005.1 3.6
01/12:30am 18.0 18.7 18.0 100 0.0 WNW 11 15 6 8 1004.9 1004.7 3.0
01/12:00am 18.0 17.6 18.0 100 0.0 W 17 22 9 12 1005.7 1005.5 2.0
 
Date/Time
EDT
Temp
°C
App
Temp
°C
Dew
Point
Rel
Hum
%
Delta-T
°C
Wind Press
QNH
hPa
Press
MSL
hPa
Rain
since 9 am
mm
Dir
 
Spd
km/h
Gust
km/h
Spd
kts
Gust
kts
28/11:30pm 18.2 16.2 18.2 100 0.0 W 26 37 14 20 1006.2 1006.0 1.2
28/11:17pm 18.5 15.4 18.5 100 0.0 WSW 32 44 17 24 1006.0 1005.8 0.4
28/11:00pm 19.1 15.0 18.3 95 0.5 WSW 37 56 20 30 1005.6 1005.4 0.0
28/10:31pm 22.1 19.3 17.2 74 3.0 WSW 28 52 15 28 1004.6 1004.4 0.0
28/10:30pm 22.4 20.7 18.2 77 2.6 WSW 24 41 13 22 1004.5 1004.3 0.0
28/10:00pm 21.5 22.3 19.1 86 1.5 WSW 13 41 7 22 1003.3 1003.1 0.0
28/09:59pm 21.5 23.1 19.1 86 1.5 WSW 9 37 5 20 1003.0 1002.8 0.0
28/09:30pm 22.2 23.4 19.0 82 2.0 E 11 15 6 8 1000.9 1000.7 0.0
28/09:00pm 22.3 23.5 19.1 82 2.0 E 11 17 6 9 1001.2 1001.0 0.0
28/08:30pm 23.0 23.6 18.7 77 2.7 ENE 13 17 7 9 1001.4 1001.2 0.0
28/08:00pm 23.6 24.2 18.5 73 3.2 ENE 13 17 7 9 1001.5 1001.3 0.0
28/07:30pm 24.5 24.8 18.0 67 4.1 NE 13 20 7 11 1001.7 1001.5 0.0
28/07:00pm 25.8 26.0 17.7 61 5.1 E 13 22 7 12 1002.1 1001.9 0.0
28/06:30pm 25.5 25.7 17.7 62 4.9 E 13 17 7 9 1002.6 1002.4 0.0
28/06:00pm 26.0 26.9 17.6 60 5.3 ESE 9 15 5 8 1003.0 1002.8 0.0
28/05:30pm 24.7 26.6 17.7 65 4.4 ESE 4 7 2 4 1003.5 1003.3 0.0
28/05:00pm 25.1 26.4 17.6 63 4.7 E 7 11 4 6 1003.2 1003.0 0.0
28/04:30pm 25.1 25.7 17.8 64 4.6 ESE 11 13 6 7 1003.2 1003.0 0.0
28/04:00pm 25.1 26.3 18.3 66 4.3 ESE 9 11 5 6 1003.7 1003.5 0.0
28/03:30pm 25.4 26.6 18.3 65 4.5 SE 9 11 5 6 1004.0 1003.8 0.0
28/03:00pm 24.7 26.3 18.2 67 4.1 ESE 7 9 4 5 1004.6 1004.4 0.0
28/02:30pm 24.2 25.8 18.2 69 3.8 NNE 7 11 4 6 1005.0 1004.8 0.0
28/02:00pm 22.8 25.7 18.1 75 3.0 CALM 0 6 0 3 1006.1 1005.9 0.0
28/01:30pm 22.2 23.8 17.8 76 2.7 SSE 6 9 3 5 1005.9 1005.7 0.0
28/01:00pm 21.6 23.6 17.8 79 2.4 N 4 7 2 4 1006.0 1005.8 0.0
28/12:30pm 21.4 22.6 16.8 75 2.8 ENE 6 9 3 5 1006.1 1005.9 0.0
28/12:00pm 21.3 22.3 16.9 76 2.7 ENE 7 11 4 6 1006.3 1006.1 0.0
28/11:30am 21.1 21.7 16.9 77 2.6 ESE 9 13 5 7 1006.6 1006.4 0.0
28/11:00am 20.7 21.8 17.1 80 2.2 E 7 9 4 5 1006.9 1006.7 0.0
28/10:30am 20.2 20.5 17.0 82 1.9 NE 11 15 6 8 1007.2 1007.0 0.0
28/10:00am 19.1 19.6 16.5 85 1.6 E 9 13 5 7 1007.6 1007.5 0.0
28/09:30am 18.6 18.9 16.9 90 1.0 ENE 11 15 6 8 1007.9 1007.8 0.0
28/09:00am 18.2 18.9 17.0 93 0.7 ENE 9 13 5 7 1007.8 1007.7 0.0
28/08:56am 18.1 18.4 17.1 94 0.6 ENE 11 15 6 8 1007.8 1007.7 0.0
28/08:30am 17.7 18.7 17.7 100 0.0 ENE 9 11 5 6 1008.0 1007.9 0.0
28/08:00am 17.0 16.9 17.0 100 0.0 ENE 13 17 7 9 1007.5 1007.4 0.0
28/07:30am 16.7 16.5 16.7 100 0.0 ENE 13 19 7 10 1007.4 1007.2 0.0
28/07:00am 16.5 16.2 16.5 100 0.0 E 13 20 7 11 1006.9 1006.7 0.0
28/06:30am 16.5 16.4 16.0 97 0.3 E 11 17 6 9 1007.5 1007.4 0.0
28/06:00am 16.5 16.8 15.9 96 0.4 E 9 15 5 8 1007.7 1007.6 0.0
28/05:30am 16.4 16.5 15.6 95 0.5 E 9 15 5 8 1007.8 1007.7 0.0
28/05:00am 16.4 16.7 15.9 97 0.3 ESE 9 13 5 7 1008.3 1008.2 0.0
28/04:30am 16.4 16.7 15.9 97 0.3 E 9 13 5 7 1008.7 1008.6 0.0
28/04:00am 16.6 16.9 16.0 96 0.4 E 9 15 5 8 1008.8 1008.7 0.0
28/03:39am 16.7 16.6 15.9 95 0.5 E 11 15 6 8 1009.1 1009.0 0.0
28/03:30am 16.7 17.0 15.9 95 0.5 ENE 9 15 5 8 1009.2 1009.1 0.0
28/03:25am 16.7 16.6 15.9 95 0.5 ENE 11 15 6 8 1009.3 1009.2 0.0
28/03:00am 16.9 17.1 15.8 93 0.6 ENE 9 15 5 8 1009.6 1009.5 0.0
28/02:30am 17.0 16.9 15.9 93 0.6 ENE 11 15 6 8 1009.7 1009.6 0.0
28/02:12am 17.0 16.4 15.7 92 0.8 ENE 13 17 7 9 1010.0 1009.9 0.0
28/02:00am 16.9 16.7 15.8 93 0.6 ENE 11 15 6 8 1009.9 1009.8 0.0
28/01:30am 17.1 17.3 15.8 92 0.8 ENE 9 13 5 7 1010.4 1010.3 0.0
28/01:22am 17.1 17.3 15.8 92 0.8 ENE 9 13 5 7 1010.4 1010.3 0.0
28/01:07am 17.2 17.8 15.7 91 0.9 ENE 7 11 4 6 1010.6 1010.5 0.0
28/01:00am 17.2 17.4 15.7 91 0.9 ENE 9 13 5 7 1010.6 1010.5 0.0
28/12:30am 17.2 17.4 15.7 91 0.9 NE 9 13 5 7 1010.8 1010.7 0.0
28/12:00am 17.2 16.5 15.5 90 1.0 NE 13 17 7 9 1010.8 1010.7 0.0
 
Date/Time
EDT
Temp
°C
App
Temp
°C
Dew
Point
Rel
Hum
%
Delta-T
°C
Wind Press
QNH
hPa
Press
MSL
hPa
Rain
since 9 am
mm
Dir
 
Spd
km/h
Gust
km/h
Spd
kts
Gust
kts
27/11:52pm 17.2 16.9 15.5 90 1.0 NE 11 17 6 9 1010.7 1010.6 0.0
27/11:38pm 17.3 17.8 15.5 89 1.1 ENE 7 13 4 7 1010.9 1010.8 0.0
27/11:30pm 17.3 17.7 15.3 88 1.2 NE 7 9 4 5 1011.0 1010.9 0.0
27/11:00pm 17.6 18.0 15.2 86 1.4 ENE 7 13 4 7 1011.0 1010.9 0.0
27/10:30pm 17.8 17.8 15.2 85 1.5 ENE 9 11 5 6 1011.1 1011.0 0.0
27/10:00pm 18.2 18.6 15.3 83 1.7 E 7 13 4 7 1011.3 1011.2 0.0
27/09:30pm 18.3 18.4 15.4 83 1.7 E 9 15 5 8 1011.0 1010.9 0.0
27/09:00pm 18.7 18.8 15.4 81 1.9 ENE 9 15 5 8 1010.9 1010.8 0.0
27/08:30pm 18.7 17.9 15.2 80 2.1 ENE 13 19 7 10 1010.3 1010.2 0.0
27/08:00pm 19.2 18.4 15.1 77 2.4 ENE 13 17 7 9 1009.7 1009.6 0.0
27/07:30pm 20.3 20.4 15.5 74 2.9 ENE 9 17 5 9 1009.4 1009.3 0.0
27/07:00pm 21.1 21.2 15.4 70 3.4 ESE 9 13 5 7 1009.6 1009.5 0.0
27/06:30pm 22.4 22.2 15.7 66 4.0 E 11 17 6 9 1009.0 1008.9 0.0
27/06:00pm 24.1 23.2 14.8 56 5.6 SW 13 19 7 10 1008.6 1008.5 0.0
27/05:30pm 25.1 24.1 14.6 52 6.3 W 13 24 7 13 1008.7 1008.6 0.0
27/05:00pm 26.7 25.1 12.7 42 8.2 W 13 20 7 11 1008.5 1008.4 0.0
27/04:30pm 25.7 24.4 12.5 44 7.6 SW 11 20 6 11 1008.6 1008.5 0.0
27/04:00pm 26.1 24.4 12.5 42 7.9 WSW 13 22 7 12 1008.6 1008.5 0.0
27/03:30pm 26.3 24.3 12.7 43 7.9 WSW 15 20 8 11 1008.8 1008.7 0.0
27/03:00pm 25.7 23.4 12.9 45 7.5 WSW 17 28 9 15 1009.3 1009.2 0.0
27/02:30pm 25.1 23.5 12.7 46 7.2 S 13 20 7 11 1009.5 1009.4 0.0
27/02:00pm 25.0 23.3 12.6 46 7.2 WNW 13 19 7 10 1009.6 1009.5 0.0
27/01:30pm 24.8 25.0 14.6 53 6.1 N 7 9 4 5 1009.7 1009.6 0.0
27/01:00pm 23.3 23.1 14.8 59 5.1 W 9 15 5 8 1010.2 1010.1 0.0
27/12:30pm 22.8 22.4 14.1 58 5.1 NW 9 15 5 8 1010.6 1010.5 0.0
27/12:00pm 22.1 21.7 14.2 61 4.6 WNW 9 17 5 9 1011.0 1010.9 0.0
27/11:30am 21.4 21.6 14.1 63 4.3 SSW 6 11 3 6 1011.1 1011.0 0.0
27/11:00am 21.0 21.7 14.4 66 3.9 S 4 11 2 6 1011.2 1011.1 0.0
27/10:30am 19.7 20.3 15.4 76 2.5 SSW 6 9 3 5 1011.1 1011.0 0.0
27/10:00am 18.4 18.9 15.6 84 1.7 W 7 9 4 5 1011.3 1011.2 0.0
27/09:30am 16.9 17.3 15.2 90 1.0 WNW 7 9 4 5 1010.8 1010.7 0.0
27/09:00am 16.7 17.3 15.7 94 0.6 W 7 11 4 6 1011.1 1011.0 0.0
27/08:30am 15.5 16.0 15.5 100 0.0 W 7 9 4 5 1011.1 1011.0 0.0
27/08:00am 14.9 15.4 14.9 100 0.0 SSW 6 9 3 5 1010.8 1010.7 0.0
27/07:30am 14.5 14.6 14.5 100 0.0 SW 7 9 4 5 1010.8 1010.7 0.0
27/07:00am 13.9 13.4 13.9 100 0.0 SW 9 11 5 6 1010.6 1010.5 0.0
27/06:30am 13.5 13.3 13.5 100 0.0 SW 7 9 4 5 1010.2 1010.1 0.0
27/06:00am 12.9 13.8 12.9 100 0.0 CALM 0 0 0 0 1010.2 1010.1 0.0
27/05:30am 12.6 13.4 12.6 100 0.0 CALM 0 0 0 0 1010.2 1010.1 0.0
27/05:00am 12.6 13.0 12.6 100 0.0 SSW 2 7 1 4 1010.1 1010.0 0.0
27/04:54am 12.2 11.7 12.2 100 0.0 SW 6 9 3 5 1010.2 1010.1 0.0
27/04:31am 11.7 10.9 11.7 100 0.0 SW 7 9 4 5 1010.3 1010.2 0.0
27/04:30am 11.6 10.8 11.6 100 0.0 SW 7 9 4 5 1010.3 1010.2 0.0
27/04:28am 11.5 10.6 11.5 100 0.0 SW 7 9 4 5 1010.3 1010.2 0.0
27/04:09am 12.7 13.5 12.7 100 0.0 CALM 0 0 0 0 1010.2 1010.1 0.0
27/04:00am 12.8 13.7 12.8 100 0.0 CALM 0 0 0 0 1010.1 1010.0 0.0
27/03:30am 13.2 13.1 13.2 100 0.0 ESE 6 7 3 4 1010.3 1010.2 0.0
27/03:00am 14.3 15.3 14.3 100 0.0 E 2 7 1 4 1010.5 1010.4 0.0
27/02:30am 14.4 14.1 14.4 100 0.0 NE 9 13 5 7 1010.8 1010.7 0.0
27/02:00am 15.4 15.4 15.2 99 0.1 S 9 13 5 7 1011.1 1011.0 0.0
27/01:30am 15.6 16.0 15.3 98 0.2 SSW 7 11 4 6 1011.4 1011.3 0.0
27/01:00am 14.9 14.8 14.9 100 0.0 WNW 9 11 5 6 1011.5 1011.4 0.0
27/12:30am 14.9 14.8 14.9 100 0.0 NW 9 9 5 5 1011.6 1011.5 0.0
27/12:00am 15.0 14.7 14.5 97 0.3 W 9 11 5 6 1011.4 1011.3 0.0
 
Date/Time
EDT
Temp
°C
App
Temp
°C
Dew
Point
Rel
Hum
%
Delta-T
°C
Wind Press
QNH
hPa
Press
MSL
hPa
Rain
since 9 am
mm
Dir
 
Spd
km/h
Gust
km/h
Spd
kts
Gust
kts
26/11:30pm 15.6 15.9 14.5 93 0.6 NW 6 9 3 5 1011.4 1011.3 0.0
26/11:00pm 16.7 17.2 15.1 90 0.9 WSW 6 9 3 5 1011.3 1011.2 0.0
26/10:30pm 16.8 15.6 15.0 89 1.0 WSW 15 17 8 9 1011.4 1011.3 0.0
26/10:00pm 16.4 15.2 14.1 86 1.3 SW 13 17 7 9 1011.3 1011.2 0.0
26/09:30pm 16.6 16.1 13.9 84 1.5 WSW 9 11 5 6 1011.0 1010.9 0.0
26/09:00pm 17.1 16.5 13.6 80 2.0 SW 9 13 5 7 1010.7 1010.6 0.0
26/08:30pm 18.8 17.4 13.4 71 3.1 SSW 13 17 7 9 1010.2 1010.1 0.0
26/08:00pm 19.8 18.4 13.5 67 3.6 SSW 13 19 7 10 1009.9 1009.8 0.0
26/07:30pm 21.0 18.9 13.7 63 4.2 SSW 17 24 9 13 1009.5 1009.4 0.0
26/07:00pm 21.2 18.7 13.6 62 4.4 SW 19 24 10 13 1009.1 1009.0 0.0
26/06:30pm 22.4 19.6 14.3 60 4.8 SW 22 30 12 16 1008.9 1008.8 0.0
26/06:00pm 22.6 19.8 14.4 60 4.8 SW 22 30 12 16 1008.7 1008.6 0.0
26/05:30pm 23.6 20.6 14.9 58 5.2 SW 24 32 13 17 1008.8 1008.7 0.0
26/05:00pm 22.4 20.2 14.8 62 4.5 SW 20 30 11 16 1008.7 1008.6 0.0
26/04:30pm 22.9 20.0 15.2 62 4.6 WSW 24 33 13 18 1008.7 1008.6 0.0
26/04:00pm 23.2 20.4 15.3 61 4.7 WSW 24 32 13 17 1008.7 1008.6 0.0
26/03:30pm 23.5 21.4 15.3 60 4.9 W 20 26 11 14 1008.9 1008.8 0.0
26/03:00pm 23.1 20.1 15.9 64 4.4 WSW 26 35 14 19 1009.3 1009.2 0.0
26/02:30pm 22.3 19.2 15.6 66 4.0 WSW 26 33 14 18 1009.4 1009.3 0.0
26/02:00pm 22.7 19.3 15.8 65 4.2 WSW 28 35 15 19 1009.2 1009.1 0.0
26/01:30pm 23.9 21.9 16.4 63 4.6 W 22 28 12 15 1009.2 1009.1 0.0
26/01:00pm 23.8 21.1 16.6 64 4.4 W 26 39 14 21 1009.3 1009.2 0.0
26/12:30pm 23.5 20.3 16.3 64 4.4 W 28 35 15 19 1009.4 1009.3 0.0
26/12:00pm 21.8 20.2 17.4 76 2.7 W 22 28 12 15 1009.8 1009.7 0.0
26/11:30am 20.1 17.0 16.5 80 2.2 WNW 28 35 15 19 1009.9 1009.8 0.0
26/11:00am 19.8 18.6 17.4 86 1.5 W 20 26 11 14 1010.2 1010.1 0.0
26/10:30am 19.1 17.7 16.9 87 1.3 W 20 28 11 15 1010.2 1010.1 0.0
26/10:00am 17.9 16.5 16.9 94 0.6 W 20 24 11 13 1010.0 1009.9 0.0
26/09:30am 17.1 16.1 16.6 97 0.3 WNW 17 24 9 13 1009.9 1009.8 0.0
26/09:00am 16.5 15.8 16.5 100 0.0 W 15 19 8 10 1009.9 1009.8 0.0
26/08:30am 15.8 15.6 15.8 100 0.0 W 11 17 6 9 1009.5 1009.4 0.0
26/08:00am 15.0 14.9 15.0 100 0.0 WSW 9 13 5 7 1009.3 1009.2 0.0
26/07:30am 14.4 14.1 14.4 100 0.0 WSW 9 13 5 7 1009.0 1008.9 0.0
26/07:00am 13.6 13.0 13.6 100 0.0 WSW 9 13 5 7 1008.9 1008.8 0.0
26/06:30am 13.6 13.0 13.6 100 0.0 SW 9 11 5 6 1008.6 1008.5 0.0

Other Formats:

Comma delimited format used in spreadsheet applications
http://www.bom.gov.au/fwo/IDV60801/IDV60801.94891.axf

JavaScript Object Notation format (JSON) in row-major order
http://www.bom.gov.au/fwo/IDV60801/IDV60801.94891.json